createdAt,value
2022-08-03T00:00:34.367Z,100326.98
2022-08-03T00:01:36.419Z,100330.48
2022-08-03T00:02:38.542Z,100327.05
2022-08-03T00:03:40.623Z,100332.34
2022-08-03T00:04:42.578Z,100319.47
2022-08-03T00:06:03.736Z,100325.35
2022-08-03T00:06:48.228Z,100325.35
2022-08-03T00:07:50.175Z,100327.12
2022-08-03T00:08:52.124Z,100326.27
2022-08-03T00:09:54.084Z,100327.12
2022-08-03T00:10:56.237Z,100327.05
2022-08-03T00:11:58.190Z,100325.26
2022-08-03T00:13:00.150Z,100329.70
2022-08-03T00:14:02.092Z,100322.61
2022-08-03T00:15:04.060Z,100325.26
2022-08-03T00:16:07.953Z,100326.98
2022-08-03T00:17:09.899Z,100323.49
2022-08-03T00:18:11.856Z,100322.55
2022-08-03T00:19:13.807Z,100318.20
2022-08-03T00:20:17.508Z,100320.84
2022-08-03T00:21:19.462Z,100320.84
2022-08-03T00:22:21.605Z,100320.84
2022-08-03T00:23:25.305Z,100316.40
2022-08-03T00:24:27.260Z,100314.61
2022-08-03T00:25:29.119Z,100316.40
2022-08-03T00:26:32.704Z,100318.20
2022-08-03T00:27:34.557Z,100319.11
2022-08-03T00:28:37.628Z,100315.62
2022-08-03T00:29:59.691Z,100313.88
2022-08-03T00:30:43.370Z,100313.88
2022-08-03T00:31:52.204Z,100318.33
2022-08-03T00:32:50.345Z,100310.39
2022-08-03T00:33:58.887Z,100317.41
2022-08-03T00:34:57.617Z,100313.91
2022-08-03T00:35:59.788Z,100313.06
2022-08-03T00:37:01.738Z,100309.54
2022-08-03T00:38:03.593Z,100303.39
2022-08-03T00:39:05.544Z,100309.60
2022-08-03T00:40:08.210Z,100306.10
2022-08-03T00:41:11.302Z,100309.67
2022-08-03T00:42:15.900Z,100311.46
2022-08-03T00:43:17.968Z,100307.02
2022-08-03T00:44:19.915Z,100308.88
2022-08-03T00:45:22.071Z,100314.17
2022-08-03T00:46:24.332Z,100311.59
2022-08-03T00:47:26.285Z,100316.88
2022-08-03T00:48:32.972Z,100316.95
2022-08-03T00:49:32.017Z,100319.59
2022-08-03T00:50:35.011Z,100316.95
2022-08-03T00:51:36.971Z,100316.13
2022-08-03T00:52:38.922Z,100309.08
2022-08-03T00:53:40.857Z,100309.98
2022-08-03T00:54:42.819Z,100310.05
2022-08-03T00:55:44.875Z,100306.55
2022-08-03T00:56:59.253Z,100313.61
2022-08-03T00:57:50.634Z,100305.73
2022-08-03T00:58:52.570Z,100314.55
2022-08-03T00:59:54.524Z,100308.37
2022-08-03T01:00:56.629Z,100310.23
2022-08-03T01:01:58.627Z,100307.59
2022-08-03T01:03:00.586Z,100308.57
2022-08-03T01:04:02.538Z,100309.52
2022-08-03T01:05:04.487Z,100312.16
2022-08-03T01:06:06.643Z,100315.72
2022-08-03T01:07:10.838Z,100311.34
2022-08-03T01:08:12.187Z,100316.64
2022-08-03T01:09:14.139Z,100314.94
2022-08-03T01:10:17.628Z,100317.58
2022-08-03T01:11:19.581Z,100307.91
2022-08-03T01:12:21.534Z,100311.47
2022-08-03T01:13:59.812Z,100311.47
2022-08-03T01:14:27.180Z,100310.62
2022-08-03T01:15:29.437Z,100312.41
2022-08-03T01:16:36.524Z,100313.33
2022-08-03T01:17:35.594Z,100316.83
2022-08-03T01:18:37.445Z,100315.09
2022-08-03T01:19:39.399Z,100314.24
2022-08-03T01:20:41.451Z,100314.24
2022-08-03T01:21:43.611Z,100310.81
2022-08-03T01:22:46.178Z,100311.66
2022-08-03T01:23:48.543Z,100314.30
2022-08-03T01:24:50.492Z,100316.10
2022-08-03T01:25:54.570Z,100312.57
2022-08-03T01:26:56.442Z,100318.80
2022-08-03T01:27:58.396Z,100319.66
2022-08-03T01:29:00.346Z,100309.14
2022-08-03T01:30:02.300Z,100310.05
2022-08-03T01:31:04.253Z,100317.14
2022-08-03T01:33:02.784Z,100317.14
2022-08-03T01:33:10.612Z,100316.28
2022-08-03T01:34:14.668Z,100309.27
2022-08-03T01:35:16.670Z,100314.67
2022-08-03T01:36:19.451Z,100314.67
2022-08-03T01:37:21.395Z,100314.73
2022-08-03T01:38:23.349Z,100315.65
2022-08-03T01:39:25.195Z,100308.66
2022-08-03T01:40:28.081Z,100309.58
2022-08-03T01:41:30.253Z,100312.22
2022-08-03T01:42:32.180Z,100314.86
2022-08-03T01:43:59.002Z,100306.08
2022-08-03T01:44:38.002Z,100305.20
2022-08-03T01:45:40.007Z,100315.77
2022-08-03T01:46:48.823Z,100306.98
2022-08-03T01:47:45.949Z,100308.78
2022-08-03T01:48:47.907Z,100309.63
2022-08-03T01:49:49.902Z,100309.70
2022-08-03T01:50:52.011Z,100312.34
2022-08-03T01:52:04.587Z,100312.40
2022-08-03T01:52:57.758Z,100314.20
2022-08-03T01:53:59.710Z,100314.20
2022-08-03T01:55:01.605Z,100316.84
2022-08-03T01:56:03.646Z,100316.88
2022-08-03T01:57:05.668Z,100317.75
2022-08-03T01:58:07.622Z,100322.22
2022-08-03T01:59:09.573Z,100314.28
2022-08-03T02:00:11.939Z,100317.88
2022-08-03T02:01:14.089Z,100321.43
2022-08-03T02:02:32.763Z,100314.41
2022-08-03T02:03:19.844Z,100317.05
2022-08-03T02:04:22.011Z,100324.14
2022-08-03T02:05:23.955Z,100327.69
2022-08-03T02:07:01.275Z,100325.05
2022-08-03T02:07:30.318Z,100325.98
2022-08-03T02:08:32.675Z,100323.41
2022-08-03T02:09:34.626Z,100326.96
2022-08-03T02:10:36.786Z,100328.75
2022-08-03T02:11:38.737Z,100327.02
2022-08-03T02:12:40.690Z,100327.94
2022-08-03T02:13:42.636Z,100320.94
2022-08-03T02:14:44.512Z,100327.14
2022-08-03T02:15:46.445Z,100330.63
2022-08-03T02:16:48.598Z,100322.77
2022-08-03T02:17:50.571Z,100327.20
2022-08-03T02:18:52.609Z,100328.99
2022-08-03T02:19:54.565Z,100330.75
2022-08-03T02:20:56.825Z,100333.40
2022-08-03T02:22:01.370Z,100330.75
2022-08-03T02:23:04.415Z,100332.55
2022-08-03T02:24:06.380Z,100331.70
2022-08-03T02:25:08.429Z,100332.61
2022-08-03T02:26:10.679Z,100337.92
2022-08-03T02:27:12.632Z,100329.14
2022-08-03T02:28:14.584Z,100331.78
2022-08-03T02:29:16.537Z,100329.14
2022-08-03T02:30:18.794Z,100328.25
2022-08-03T02:31:20.748Z,100327.41
2022-08-03T02:32:22.705Z,100335.39
2022-08-03T02:33:24.657Z,100328.37
2022-08-03T02:34:26.709Z,100326.64
2022-08-03T02:35:28.662Z,100336.31
2022-08-03T02:36:31.949Z,100326.64
2022-08-03T02:37:34.001Z,100329.28
2022-08-03T02:38:35.954Z,100326.70
2022-08-03T02:39:37.911Z,100332.88
2022-08-03T02:40:40.576Z,100335.52
2022-08-03T02:41:42.935Z,100335.52
2022-08-03T02:42:44.886Z,100328.49
2022-08-03T02:44:05.903Z,100331.20
2022-08-03T02:44:50.840Z,100332.11
2022-08-03T02:45:52.794Z,100336.48
2022-08-03T02:46:54.848Z,100330.34
2022-08-03T02:47:56.798Z,100338.28
2022-08-03T02:48:58.799Z,100336.48
2022-08-03T02:50:02.275Z,100330.34
2022-08-03T02:51:04.297Z,100335.63
2022-08-03T02:52:06.254Z,100326.77
2022-08-03T02:53:10.068Z,100327.64
2022-08-03T02:54:11.996Z,100330.29
2022-08-03T02:55:13.949Z,100328.49
2022-08-03T02:56:16.820Z,100336.42
2022-08-03T02:57:18.779Z,100334.63
2022-08-03T02:58:20.731Z,100334.63
2022-08-03T02:59:22.681Z,100334.63
2022-08-03T03:00:27.844Z,100337.27
2022-08-03T03:01:29.021Z,100335.52
2022-08-03T03:02:30.995Z,100333.72
2022-08-03T03:03:33.204Z,100339.86
2022-08-03T03:04:36.748Z,100340.75
2022-08-03T03:05:55.893Z,100340.75
2022-08-03T03:06:42.697Z,100341.66
2022-08-03T03:07:51.999Z,100345.15
2022-08-03T03:08:50.289Z,100349.53
2022-08-03T03:09:52.242Z,100346.88
2022-08-03T03:10:55.654Z,100342.50
2022-08-03T03:11:57.988Z,100346.94
2022-08-03T03:12:59.940Z,100343.39
2022-08-03T03:14:01.892Z,100342.50
2022-08-03T03:15:03.843Z,100342.50
2022-08-03T03:16:06.104Z,100341.66
2022-08-03T03:17:08.056Z,100341.59
2022-08-03T03:18:10.010Z,100338.95
2022-08-03T03:19:13.092Z,100336.31
2022-08-03T03:20:16.618Z,100336.31
2022-08-03T03:21:20.679Z,100344.18
2022-08-03T03:22:23.862Z,100337.98
2022-08-03T03:23:26.016Z,100341.48
2022-08-03T03:24:27.969Z,100339.69
2022-08-03T03:25:29.923Z,100343.19
2022-08-03T03:26:32.387Z,100348.41
2022-08-03T03:27:34.340Z,100345.70
2022-08-03T03:28:36.290Z,100344.80
2022-08-03T03:29:39.382Z,100335.08
2022-08-03T03:30:41.733Z,100349.09
2022-08-03T03:31:43.684Z,100344.63
2022-08-03T03:32:45.635Z,100346.32
2022-08-03T03:33:47.590Z,100340.97
2022-08-03T03:34:49.545Z,100339.16
2022-08-03T03:35:53.232Z,100352.25
2022-08-03T03:36:56.620Z,100344.27
2022-08-03T03:37:58.576Z,100344.20
2022-08-03T03:39:15.229Z,100347.64
2022-08-03T03:40:04.323Z,100350.22
2022-08-03T03:41:06.581Z,100347.52
2022-08-03T03:42:08.861Z,100347.45
2022-08-03T03:43:10.900Z,100348.27
2022-08-03T03:44:12.853Z,100351.65
2022-08-03T03:45:14.804Z,100349.85
2022-08-03T03:46:17.270Z,100345.39
2022-08-03T03:47:19.213Z,100348.76
2022-08-03T03:48:23.013Z,100342.55
2022-08-03T03:49:25.002Z,100348.70
2022-08-03T03:50:28.449Z,100341.55
2022-08-03T03:51:30.407Z,100346.75
2022-08-03T03:52:32.563Z,100339.66
2022-08-03T03:53:34.520Z,100343.98
2022-08-03T03:54:36.477Z,100338.63
2022-08-03T03:55:59.348Z,100339.41
2022-08-03T03:56:42.321Z,100341.08
2022-08-03T03:57:44.432Z,100338.37
2022-08-03T03:58:46.420Z,100341.74
2022-08-03T03:59:48.374Z,100340.83
2022-08-03T04:00:50.611Z,100346.00
2022-08-03T04:01:59.103Z,100346.78
2022-08-03T04:02:56.380Z,100357.24
2022-08-03T04:03:58.333Z,100352.77
2022-08-03T04:05:00.286Z,100357.09
2022-08-03T04:06:02.447Z,100349.08
2022-08-03T04:07:04.401Z,100348.95
2022-08-03T04:08:06.453Z,100347.91
2022-08-03T04:09:08.401Z,100347.84
2022-08-03T04:10:14.369Z,100355.66
2022-08-03T04:11:14.874Z,100348.53
2022-08-03T04:12:17.155Z,100353.77
2022-08-03T04:13:19.283Z,100358.05
2022-08-03T04:14:21.246Z,100354.48
2022-08-03T04:15:23.191Z,100357.06
2022-08-03T04:16:26.882Z,100354.35
2022-08-03T04:17:28.834Z,100356.09
2022-08-03T04:18:30.992Z,100356.02
2022-08-03T04:19:32.945Z,100355.95
2022-08-03T04:20:35.005Z,100357.59
2022-08-03T04:21:36.958Z,100362.82
2022-08-03T04:22:38.904Z,100360.04
2022-08-03T04:23:40.859Z,100367.92
2022-08-03T04:24:42.814Z,100360.79
2022-08-03T04:25:44.765Z,100360.73
2022-08-03T04:26:52.269Z,100358.86
2022-08-03T04:28:07.570Z,100354.38
2022-08-03T04:28:54.307Z,100355.23
2022-08-03T04:29:56.258Z,100359.55
2022-08-03T04:30:58.620Z,100354.18
2022-08-03T04:32:00.573Z,100357.61
2022-08-03T04:33:04.064Z,100350.45
2022-08-03T04:34:06.014Z,100352.11
2022-08-03T04:35:07.971Z,100345.02
2022-08-03T04:36:10.740Z,100349.33
2022-08-03T04:37:12.690Z,100354.56
2022-08-03T04:38:14.645Z,100350.92
2022-08-03T04:39:16.699Z,100346.47
2022-08-03T04:40:20.409Z,100348.98
2022-08-03T04:41:24.905Z,100351.63
2022-08-03T04:42:27.680Z,100356.80
2022-08-03T04:43:29.633Z,100356.77
2022-08-03T04:44:31.583Z,100348.74
2022-08-03T04:45:33.541Z,100356.63
2022-08-03T04:46:35.795Z,100352.14
2022-08-03T04:47:37.751Z,100350.27
2022-08-03T04:48:43.457Z,100347.55
2022-08-03T04:49:43.561Z,100354.52
2022-08-03T04:50:45.652Z,100347.34
2022-08-03T04:51:47.608Z,100350.81
2022-08-03T04:52:49.560Z,100350.73
2022-08-03T04:53:51.507Z,100349.78
2022-08-03T04:54:55.002Z,100347.95
2022-08-03T04:55:56.952Z,100353.18
2022-08-03T04:57:00.850Z,100346.92
2022-08-03T04:58:02.797Z,100352.16
2022-08-03T04:59:04.755Z,100346.78
2022-08-03T05:00:07.318Z,100352.09
2022-08-03T05:01:09.277Z,100349.36
2022-08-03T05:02:11.235Z,100347.53
2022-08-03T05:03:20.144Z,100355.41
2022-08-03T05:04:16.934Z,100364.99
2022-08-03T05:05:18.927Z,100361.42
2022-08-03T05:06:25.016Z,100351.63
2022-08-03T05:07:26.569Z,100361.21
2022-08-03T05:08:30.310Z,100354.98
2022-08-03T05:09:33.702Z,100351.41
2022-08-03T05:10:38.616Z,100358.41
2022-08-03T05:11:40.582Z,100353.92
2022-08-03T05:12:42.531Z,100355.70
2022-08-03T05:13:44.376Z,100356.64
2022-08-03T05:14:46.239Z,100355.70
2022-08-03T05:15:48.183Z,100351.27
2022-08-03T05:16:50.643Z,100357.42
2022-08-03T05:17:53.419Z,100354.70
2022-08-03T05:18:55.372Z,100357.28
2022-08-03T05:19:57.325Z,100367.81
2022-08-03T05:20:59.480Z,100367.81
2022-08-03T05:22:01.434Z,100369.48
2022-08-03T05:23:03.383Z,100364.17
2022-08-03T05:24:05.337Z,100365.02
2022-08-03T05:25:07.286Z,100365.02
2022-08-03T05:26:10.263Z,100368.45
2022-08-03T05:27:12.219Z,100370.26
2022-08-03T05:28:14.172Z,100370.26
2022-08-03T05:29:16.124Z,100374.56
2022-08-03T05:30:27.270Z,100374.56
2022-08-03T05:31:22.487Z,100374.56
2022-08-03T05:32:24.547Z,100374.56
2022-08-03T05:33:26.488Z,100379.87
2022-08-03T05:34:28.446Z,100374.56
2022-08-03T05:35:56.157Z,100377.22
2022-08-03T05:36:34.195Z,100386.03
2022-08-03T05:37:36.144Z,100384.22
2022-08-03T05:38:38.100Z,100380.65
2022-08-03T05:39:40.050Z,100385.95
2022-08-03T05:40:56.635Z,100388.61
2022-08-03T05:41:46.005Z,100388.53
2022-08-03T05:42:48.157Z,100379.66
2022-08-03T05:43:50.112Z,100379.52
2022-08-03T05:44:52.069Z,100371.77
2022-08-03T05:46:11.457Z,100387.40
2022-08-03T05:46:58.325Z,100386.48
2022-08-03T05:48:00.277Z,100386.48
2022-08-03T05:49:02.279Z,100387.29
2022-08-03T05:50:04.488Z,100393.44
2022-08-03T05:51:06.445Z,100390.79
2022-08-03T05:52:21.042Z,100392.59
2022-08-03T05:53:12.091Z,100394.33
2022-08-03T05:54:14.035Z,100395.17
2022-08-03T05:55:15.997Z,100396.02
2022-08-03T05:56:18.763Z,100393.37
2022-08-03T05:57:20.919Z,100394.18
2022-08-03T05:58:23.694Z,100395.03
2022-08-03T05:59:38.215Z,100400.27
2022-08-03T06:00:32.409Z,100402.91
2022-08-03T06:01:34.600Z,100402.00
2022-08-03T06:02:36.627Z,100404.65
2022-08-03T06:03:38.583Z,100404.65
2022-08-03T06:04:40.528Z,100400.27
2022-08-03T06:05:43.393Z,100407.30
2022-08-03T06:06:46.280Z,100405.50
2022-08-03T06:07:48.234Z,100405.42
2022-08-03T06:08:50.185Z,100407.16
2022-08-03T06:10:35.602Z,100408.86
2022-08-03T06:10:55.932Z,100414.97
2022-08-03T06:11:57.892Z,100415.82
2022-08-03T06:12:59.967Z,100419.36
2022-08-03T06:14:01.896Z,100418.41
2022-08-03T06:15:04.141Z,100425.44
2022-08-03T06:16:06.209Z,100415.67
2022-08-03T06:17:08.162Z,100409.45
2022-08-03T06:18:10.115Z,100409.45
2022-08-03T06:19:12.066Z,100409.38
2022-08-03T06:20:14.941Z,100411.18
2022-08-03T06:21:16.892Z,100415.53
2022-08-03T06:22:19.114Z,100412.95
2022-08-03T06:23:25.294Z,100414.69
2022-08-03T06:24:26.542Z,100414.69
2022-08-03T06:25:28.490Z,100413.77
2022-08-03T06:26:30.650Z,100417.27
2022-08-03T06:27:37.052Z,100418.11
2022-08-03T06:28:52.376Z,100425.23
2022-08-03T06:29:40.191Z,100419.06
2022-08-03T06:30:42.349Z,100420.84
2022-08-03T06:31:44.328Z,100420.84
2022-08-03T06:32:51.651Z,100416.48
2022-08-03T06:34:32.440Z,100422.72
2022-08-03T06:34:53.850Z,100414.76
2022-08-03T06:35:55.799Z,100420.91
2022-08-03T06:37:01.909Z,100425.30
2022-08-03T06:38:01.753Z,100425.30
2022-08-03T06:39:03.707Z,100426.14
2022-08-03T06:40:05.964Z,100422.64
2022-08-03T06:41:07.920Z,100427.88
2022-08-03T06:42:10.303Z,100425.23
2022-08-03T06:43:12.827Z,100415.67
2022-08-03T06:44:16.233Z,100430.53
2022-08-03T06:45:18.192Z,100421.72
2022-08-03T06:46:22.083Z,100429.68
2022-08-03T06:47:24.038Z,100427.03
2022-08-03T06:48:25.988Z,100426.14
2022-08-03T06:49:28.007Z,100427.88
2022-08-03T06:50:31.121Z,100431.38
2022-08-03T06:52:03.661Z,100426.14
2022-08-03T06:52:37.879Z,100426.14
2022-08-03T06:53:40.279Z,100424.38
2022-08-03T06:54:42.308Z,100429.61
2022-08-03T06:55:44.772Z,100429.61
2022-08-03T06:56:46.931Z,100422.50
2022-08-03T06:57:48.971Z,100426.00
2022-08-03T06:58:51.453Z,100431.23
2022-08-03T07:00:10.527Z,100429.47
2022-08-03T07:00:57.565Z,100428.52
2022-08-03T07:01:59.562Z,100424.09
2022-08-03T07:03:01.517Z,100422.42
2022-08-03T07:04:03.467Z,100422.42
2022-08-03T07:05:05.417Z,100433.75
2022-08-03T07:06:07.988Z,100431.09
2022-08-03T07:07:09.938Z,100441.78
2022-08-03T07:08:11.992Z,100433.89
2022-08-03T07:09:13.944Z,100433.89
2022-08-03T07:10:17.741Z,100433.04
2022-08-03T07:11:19.699Z,100436.62
2022-08-03T07:12:21.647Z,100442.81
2022-08-03T07:13:23.598Z,100446.38
2022-08-03T07:14:25.553Z,100448.19
2022-08-03T07:15:54.116Z,100444.66
2022-08-03T07:16:31.710Z,100448.19
2022-08-03T07:17:33.667Z,100456.15
2022-08-03T07:18:35.613Z,100460.64
2022-08-03T07:19:37.561Z,100447.37
2022-08-03T07:20:40.134Z,100451.91
2022-08-03T07:21:42.088Z,100452.83
2022-08-03T07:22:44.037Z,100456.36
2022-08-03T07:23:46.089Z,100462.59
2022-08-03T07:24:48.047Z,100457.28
2022-08-03T07:25:50.101Z,100453.71
2022-08-03T07:26:52.259Z,100458.13
2022-08-03T07:27:54.202Z,100451.98
2022-08-03T07:28:58.007Z,100453.71
2022-08-03T07:29:59.964Z,100459.94
2022-08-03T07:31:02.011Z,100451.98
2022-08-03T07:32:03.965Z,100456.44
2022-08-03T07:33:05.918Z,100458.20
2022-08-03T07:34:07.868Z,100466.98
2022-08-03T07:35:24.637Z,100464.33
2022-08-03T07:36:14.231Z,100461.67
2022-08-03T07:37:16.595Z,100458.95
2022-08-03T07:38:21.067Z,100460.72
2022-08-03T07:39:22.445Z,100458.06
2022-08-03T07:40:25.421Z,100459.80
2022-08-03T07:41:29.217Z,100461.53
2022-08-03T07:42:31.159Z,100463.30
2022-08-03T07:43:33.222Z,100459.72
2022-08-03T07:44:35.178Z,100466.69
2022-08-03T07:45:37.128Z,100463.08
2022-08-03T07:46:39.705Z,100460.43
2022-08-03T07:47:41.647Z,100456.70
2022-08-03T07:48:45.444Z,100456.70
2022-08-03T07:49:47.400Z,100458.44
2022-08-03T07:50:49.553Z,100456.64
2022-08-03T07:51:51.508Z,100449.45
2022-08-03T07:52:53.492Z,100446.80
2022-08-03T07:53:55.509Z,100451.99
2022-08-03T07:54:57.469Z,100456.34
2022-08-03T07:55:59.414Z,100453.63
2022-08-03T07:57:03.213Z,100457.94
2022-08-03T07:58:05.292Z,100460.52
2022-08-03T07:59:07.321Z,100453.40
2022-08-03T08:00:10.094Z,100454.28
2022-08-03T08:01:12.286Z,100457.78
2022-08-03T08:02:16.411Z,100456.86
2022-08-03T08:03:21.687Z,100456.79
2022-08-03T08:04:23.639Z,100458.49
2022-08-03T08:05:25.594Z,100462.03
2022-08-03T08:06:28.362Z,100463.66
2022-08-03T08:07:30.315Z,100461.88
2022-08-03T08:08:32.267Z,100465.38
2022-08-03T08:09:34.220Z,100468.04
2022-08-03T08:10:37.391Z,100464.46
2022-08-03T08:11:40.123Z,100465.31
2022-08-03T08:12:42.226Z,100471.47
2022-08-03T08:13:44.179Z,100468.74
2022-08-03T08:14:46.309Z,100468.74
2022-08-03T08:15:49.416Z,100474.94
2022-08-03T08:16:52.897Z,100467.89
2022-08-03T08:17:54.849Z,100471.33
2022-08-03T08:18:56.808Z,100477.52
2022-08-03T08:19:58.758Z,100470.47
2022-08-03T08:21:01.558Z,100471.33
2022-08-03T08:22:03.792Z,100471.33
2022-08-03T08:23:33.866Z,100469.55
2022-08-03T08:24:18.140Z,100472.13
2022-08-03T08:25:15.077Z,100471.25
2022-08-03T08:26:19.080Z,100467.74
2022-08-03T08:27:21.026Z,100469.55
2022-08-03T08:28:32.783Z,100473.05
2022-08-03T08:29:26.670Z,100473.98
2022-08-03T08:30:30.062Z,100472.20
2022-08-03T08:31:33.446Z,100475.71
2022-08-03T08:32:35.401Z,100471.25
2022-08-03T08:34:01.426Z,100478.29
2022-08-03T08:34:41.250Z,100471.20
2022-08-03T08:35:43.201Z,100472.91
2022-08-03T08:36:45.259Z,100477.37
2022-08-03T08:37:51.134Z,100471.13
2022-08-03T08:38:52.849Z,100475.48
2022-08-03T08:39:54.806Z,100476.30
2022-08-03T08:40:56.858Z,100470.98
2022-08-03T08:41:58.808Z,100467.45
2022-08-03T08:43:00.759Z,100473.56
2022-08-03T08:44:02.713Z,100476.18
2022-08-03T08:45:04.657Z,100474.37
2022-08-03T08:46:09.795Z,100471.64
2022-08-03T08:47:11.747Z,100474.23
2022-08-03T08:48:13.694Z,100475.95
2022-08-03T08:49:15.812Z,100482.97
2022-08-03T08:50:27.476Z,100476.73
2022-08-03T08:51:21.909Z,100484.63
2022-08-03T08:52:25.235Z,100480.16
2022-08-03T08:53:27.824Z,100485.40
2022-08-03T08:54:29.914Z,100483.63
2022-08-03T08:55:59.251Z,100478.23
2022-08-03T08:56:35.668Z,100477.36
2022-08-03T08:57:44.687Z,100471.97
2022-08-03T08:58:41.415Z,100479.89
2022-08-03T08:59:48.472Z,100465.73
2022-08-03T09:00:47.507Z,100472.77
2022-08-03T09:01:49.533Z,100470.12
2022-08-03T09:02:51.475Z,100475.36
2022-08-03T09:03:53.427Z,100478.86
2022-08-03T09:04:55.377Z,100477.94
2022-08-03T09:05:57.407Z,100474.36
2022-08-03T09:07:19.259Z,100475.20
2022-08-03T09:08:03.285Z,100474.36
2022-08-03T09:09:05.246Z,100484.02
2022-08-03T09:10:12.933Z,100475.20
2022-08-03T09:11:12.511Z,100480.44
2022-08-03T09:12:37.571Z,100484.91
2022-08-03T09:13:18.168Z,100478.64
2022-08-03T09:14:36.573Z,100480.44
2022-08-03T09:15:23.926Z,100476.86
2022-08-03T09:16:26.281Z,100477.71
2022-08-03T09:17:28.233Z,100485.68
2022-08-03T09:18:32.899Z,100477.63
2022-08-03T09:19:33.986Z,100486.45
2022-08-03T09:20:36.435Z,100476.71
2022-08-03T09:21:38.602Z,100479.29
2022-08-03T09:22:40.556Z,100471.32
2022-08-03T09:24:00.707Z,100484.53
2022-08-03T09:24:49.035Z,100477.48
2022-08-03T09:25:50.203Z,100472.94
2022-08-03T09:26:53.670Z,100481.80
2022-08-03T09:27:56.054Z,100481.72
2022-08-03T09:29:04.700Z,100479.91
2022-08-03T09:30:01.907Z,100477.25
2022-08-03T09:31:03.854Z,100482.56
2022-08-03T09:32:05.812Z,100478.98
2022-08-03T09:33:08.355Z,100478.10
2022-08-03T09:34:10.634Z,100485.92
2022-08-03T09:35:12.589Z,100481.56
2022-08-03T09:36:14.937Z,100480.61
2022-08-03T09:37:17.292Z,100477.91
2022-08-03T09:38:19.469Z,100477.83
2022-08-03T09:39:40.242Z,100482.27
2022-08-03T09:40:25.526Z,100481.33
2022-08-03T09:41:27.480Z,100478.60
2022-08-03T09:42:29.432Z,100484.77
2022-08-03T09:43:31.581Z,100480.33
2022-08-03T09:44:34.662Z,100475.87
2022-08-03T09:45:36.609Z,100476.64
2022-08-03T09:46:38.664Z,100475.79
2022-08-03T09:47:44.971Z,100473.98
2022-08-03T09:48:46.166Z,100471.25
2022-08-03T09:49:48.112Z,100478.30
2022-08-03T09:50:57.120Z,100474.70
2022-08-03T09:52:33.607Z,100484.37
2022-08-03T09:52:57.855Z,100477.37
2022-08-03T09:54:00.421Z,100479.06
2022-08-03T09:55:02.586Z,100480.87
2022-08-03T09:56:35.167Z,100480.87
2022-08-03T09:57:08.538Z,100480.87
2022-08-03T09:58:10.853Z,100478.22
2022-08-03T09:59:13.274Z,100474.70
2022-08-03T10:00:15.728Z,100477.37
2022-08-03T10:01:23.978Z,100473.91
2022-08-03T10:02:21.571Z,100473.91
2022-08-03T10:03:23.531Z,100473.67
2022-08-03T10:04:25.489Z,100478.91
2022-08-03T10:05:27.435Z,100473.75
2022-08-03T10:06:30.722Z,100477.98
2022-08-03T10:09:00.207Z,100482.30
2022-08-03T10:10:30.709Z,100483.30
2022-08-03T10:11:05.974Z,100482.38
2022-08-03T10:12:07.921Z,100482.38
2022-08-03T10:13:09.881Z,100477.05
2022-08-03T10:14:11.818Z,100484.06
2022-08-03T10:16:22.720Z,100483.22
2022-08-03T10:16:23.291Z,100483.22
2022-08-03T10:17:23.117Z,100491.20
2022-08-03T10:18:25.067Z,100487.69
2022-08-03T10:19:27.021Z,100487.69
2022-08-03T10:20:30.817Z,100486.73
2022-08-03T10:21:34.283Z,100489.38
2022-08-03T10:22:37.383Z,100491.97
2022-08-03T10:23:39.431Z,100487.53
2022-08-03T10:24:41.386Z,100485.80
2022-08-03T10:25:43.328Z,100485.80
2022-08-03T10:26:49.729Z,100487.61
2022-08-03T10:27:49.187Z,100486.73
2022-08-03T10:28:51.136Z,100484.06
2022-08-03T10:29:53.089Z,100481.41
2022-08-03T10:30:55.558Z,100489.38
2022-08-03T10:31:58.529Z,100491.97
2022-08-03T10:33:00.688Z,100496.36
2022-08-03T10:34:02.636Z,100494.55
2022-08-03T10:35:20.467Z,100491.89
2022-08-03T10:36:09.407Z,100488.37
2022-08-03T10:37:11.360Z,100489.23
2022-08-03T10:38:13.312Z,100492.69
2022-08-03T10:39:16.037Z,100491.77
2022-08-03T10:40:39.592Z,100487.30
2022-08-03T10:41:23.382Z,100495.20
2022-08-03T10:42:26.381Z,100490.68
2022-08-03T10:43:28.512Z,100488.91
2022-08-03T10:44:30.458Z,100481.78
2022-08-03T10:45:32.415Z,100487.02
2022-08-03T10:46:34.580Z,100488.75
2022-08-03T10:47:36.528Z,100490.45
2022-08-03T10:48:38.481Z,100486.86
2022-08-03T10:49:40.468Z,100492.09
2022-08-03T10:50:42.701Z,100492.02
2022-08-03T10:51:44.646Z,100492.87
2022-08-03T10:52:49.195Z,100495.45
2022-08-03T10:53:54.503Z,100489.20
2022-08-03T10:54:54.913Z,100487.31
2022-08-03T10:55:56.849Z,100483.80
2022-08-03T10:57:01.856Z,100492.62
2022-08-03T10:58:08.004Z,100487.31
2022-08-03T10:59:08.861Z,100490.85
2022-08-03T11:00:12.673Z,100485.53
2022-08-03T11:01:14.642Z,100491.70
2022-08-03T11:02:16.651Z,100495.21
2022-08-03T11:03:18.838Z,100491.70
2022-08-03T11:04:20.771Z,100491.63
2022-08-03T11:05:22.725Z,100488.11
2022-08-03T11:06:26.519Z,100489.13
2022-08-03T11:07:28.471Z,100486.39
2022-08-03T11:08:30.424Z,100487.31
2022-08-03T11:09:32.373Z,100487.31
2022-08-03T11:10:35.044Z,100487.31
2022-08-03T11:11:36.996Z,100493.52
2022-08-03T11:12:38.953Z,100490.85
2022-08-03T11:13:40.908Z,100490.85
2022-08-03T11:14:42.857Z,100492.55
2022-08-03T11:15:46.656Z,100496.09
2022-08-03T11:16:48.805Z,100487.23
2022-08-03T11:17:55.994Z,100487.19
2022-08-03T11:18:54.660Z,100488.11
2022-08-03T11:19:58.346Z,100487.19
2022-08-03T11:21:00.532Z,100490.77
2022-08-03T11:22:02.560Z,100484.53
2022-08-03T11:23:04.927Z,100488.03
2022-08-03T11:24:07.033Z,100483.64
2022-08-03T11:25:09.150Z,100487.19
2022-08-03T11:26:14.360Z,100479.20
2022-08-03T11:27:16.399Z,100488.03
2022-08-03T11:28:18.680Z,100483.64
2022-08-03T11:29:22.374Z,100487.19
2022-08-03T11:30:26.568Z,100484.45
2022-08-03T11:32:32.840Z,100482.64
2022-08-03T11:33:34.784Z,100479.98
2022-08-03T11:34:36.742Z,100485.30
2022-08-03T11:35:38.689Z,100480.83
2022-08-03T11:36:41.266Z,100477.31
2022-08-03T11:37:43.206Z,100479.05
2022-08-03T11:38:46.901Z,100478.17
2022-08-03T11:39:48.853Z,100475.42
2022-08-03T11:40:51.018Z,100470.03
2022-08-03T11:41:53.478Z,100473.57
2022-08-03T11:42:55.428Z,100476.23
2022-08-03T11:43:57.999Z,100481.55
2022-08-03T11:45:01.788Z,100483.33
2022-08-03T11:46:03.847Z,100483.33
2022-08-03T11:47:05.796Z,100482.48
2022-08-03T11:48:07.758Z,100480.75
2022-08-03T11:49:11.131Z,100480.75
2022-08-03T11:50:15.145Z,100482.48
2022-08-03T11:51:17.100Z,100477.16
2022-08-03T11:52:19.042Z,100482.48
2022-08-03T11:53:20.994Z,100482.31
2022-08-03T11:54:22.946Z,100482.31
2022-08-03T11:55:27.845Z,100482.23